createdAt,value
2022-11-01T00:02:06.485Z,14.00
2022-11-01T00:04:33.558Z,14.80
2022-11-01T00:07:00.620Z,14.13
2022-11-01T00:09:27.550Z,14.13
2022-11-01T00:11:54.519Z,13.73
2022-11-01T00:14:21.614Z,14.37
2022-11-01T00:16:49.342Z,13.07
2022-11-01T00:19:16.558Z,13.20
2022-11-01T00:21:43.498Z,14.30
2022-11-01T00:24:10.597Z,14.13
2022-11-01T00:26:37.616Z,12.77
2022-11-01T00:29:04.989Z,13.50
2022-11-01T00:31:32.001Z,12.97
2022-11-01T00:34:01.380Z,13.40
2022-11-01T00:36:28.244Z,13.17
2022-11-01T00:38:55.207Z,13.90
2022-11-01T00:41:22.377Z,14.10
2022-11-01T00:43:49.641Z,13.50
2022-11-01T00:46:16.965Z,13.43
2022-11-01T00:48:44.054Z,13.37
2022-11-01T00:51:11.572Z,11.67
2022-11-01T00:53:38.521Z,13.30
2022-11-01T00:56:07.077Z,12.70
2022-11-01T00:58:35.536Z,12.50
2022-11-01T01:01:02.766Z,12.83
2022-11-01T01:03:29.869Z,13.30
2022-11-01T01:05:56.929Z,13.20
2022-11-01T01:08:24.687Z,13.20
2022-11-01T01:10:51.993Z,12.00
2022-11-01T01:13:19.121Z,13.30
2022-11-01T01:15:46.170Z,12.97
2022-11-01T01:18:13.591Z,12.30
2022-11-01T01:20:40.799Z,13.30
2022-11-01T01:23:07.753Z,13.73
2022-11-01T01:25:35.128Z,14.17
2022-11-01T01:28:02.595Z,12.50
2022-11-01T01:30:29.658Z,12.73
2022-11-01T01:32:56.551Z,13.17
2022-11-01T01:35:23.417Z,12.03
2022-11-01T01:37:50.283Z,12.27
2022-11-01T01:40:17.225Z,11.73
2022-11-01T01:42:44.111Z,12.30
2022-11-01T01:45:31.137Z,12.27
2022-11-01T01:48:10.914Z,11.50
2022-11-01T01:51:00.730Z,11.50
2022-11-01T01:53:33.839Z,12.23
2022-11-01T01:56:04.949Z,12.00
2022-11-01T01:59:06.933Z,11.83
2022-11-01T02:01:37.671Z,12.73
2022-11-01T02:04:11.904Z,12.37
2022-11-01T02:06:39.765Z,13.83
2022-11-01T02:09:08.416Z,11.27
2022-11-01T02:11:36.284Z,13.03
2022-11-01T02:14:03.543Z,13.90
2022-11-01T02:17:07.007Z,14.00
2022-11-01T02:20:21.016Z,14.07
2022-11-01T02:23:29.625Z,15.30
2022-11-01T02:26:33.461Z,16.13
2022-11-01T02:29:32.549Z,14.43
2022-11-01T02:32:22.545Z,14.70
2022-11-01T02:34:59.412Z,16.27
2022-11-01T02:37:34.660Z,16.13
2022-11-01T02:40:10.045Z,18.30
2022-11-01T02:42:43.510Z,17.23
2022-11-01T02:45:30.473Z,16.00
2022-11-01T02:48:02.606Z,16.30
2022-11-01T02:50:37.907Z,16.90
2022-11-01T02:53:08.070Z,17.90
2022-11-01T02:55:36.153Z,17.80
2022-11-01T02:58:26.194Z,18.30
2022-11-01T03:00:55.665Z,16.40
2022-11-01T03:03:34.318Z,18.30
2022-11-01T03:06:01.181Z,19.17
2022-11-01T03:09:00.637Z,18.47
2022-11-01T03:12:26.683Z,18.77
2022-11-01T03:15:20.699Z,19.43
2022-11-01T03:18:00.793Z,18.53
2022-11-01T03:20:49.195Z,18.67
2022-11-01T03:23:30.712Z,18.30
2022-11-01T03:26:00.626Z,17.30
2022-11-01T03:28:36.421Z,19.13
2022-11-01T03:31:09.880Z,19.30
2022-11-01T03:33:43.040Z,18.90
2022-11-01T03:36:16.097Z,18.77
2022-11-01T03:38:56.953Z,17.83
2022-11-01T03:41:27.775Z,18.03
2022-11-01T03:43:55.261Z,16.93
2022-11-01T03:46:22.581Z,14.77
2022-11-01T03:48:49.431Z,15.37
2022-11-01T03:51:16.397Z,16.33
2022-11-01T03:53:43.412Z,16.47
2022-11-01T03:56:10.535Z,15.27
2022-11-01T03:58:46.254Z,15.43
2022-11-01T04:01:16.461Z,16.30
2022-11-01T04:03:44.787Z,16.20
2022-11-01T04:06:12.013Z,16.20
2022-11-01T04:08:40.366Z,15.13
2022-11-01T04:11:07.428Z,14.23
2022-11-01T04:13:35.368Z,14.30
2022-11-01T04:16:20.750Z,14.63
2022-11-01T04:19:05.929Z,14.90
2022-11-01T04:21:32.981Z,13.73
2022-11-01T04:23:59.871Z,12.57
2022-11-01T04:26:27.157Z,12.03
2022-11-01T04:28:59.670Z,12.20
2022-11-01T04:31:30.636Z,11.97
2022-11-01T04:33:59.304Z,11.57
2022-11-01T04:36:26.370Z,11.63
2022-11-01T04:38:55.792Z,10.90
2022-11-01T04:41:26.041Z,11.73
2022-11-01T04:43:56.070Z,11.60
2022-11-01T04:46:29.616Z,11.40
2022-11-01T04:48:56.642Z,11.87
2022-11-01T04:51:23.544Z,11.37
2022-11-01T04:53:50.510Z,11.20
2022-11-01T04:56:17.432Z,11.07
2022-11-01T04:58:46.340Z,12.30
2022-11-01T05:01:15.829Z,10.90
2022-11-01T05:03:43.530Z,10.83
2022-11-01T05:06:11.585Z,12.03
2022-11-01T05:08:38.735Z,11.90
2022-11-01T05:11:05.865Z,12.80
2022-11-01T05:13:33.118Z,12.67
2022-11-01T05:16:18.990Z,13.07
2022-11-01T05:18:46.949Z,11.50
2022-11-01T05:21:13.914Z,10.60
2022-11-01T05:23:40.976Z,11.77
2022-11-01T05:26:08.941Z,10.63
2022-11-01T05:28:35.822Z,11.63
2022-11-01T05:31:03.774Z,10.83
2022-11-01T05:33:33.734Z,9.23
2022-11-01T05:36:01.906Z,9.80
2022-11-01T05:38:29.128Z,11.20
2022-11-01T05:40:55.969Z,12.67
2022-11-01T05:43:24.027Z,11.37
2022-11-01T05:45:51.295Z,12.00
2022-11-01T05:48:18.223Z,12.93
2022-11-01T05:50:46.830Z,12.63
2022-11-01T05:53:13.880Z,12.30
2022-11-01T05:55:40.766Z,12.43
2022-11-01T05:58:07.680Z,12.47
2022-11-01T06:00:35.233Z,11.03
2022-11-01T06:03:03.875Z,11.47
2022-11-01T06:05:31.494Z,9.50
2022-11-01T06:08:00.833Z,10.73
2022-11-01T06:10:28.387Z,10.57
2022-11-01T06:12:56.761Z,10.67
2022-11-01T06:15:24.225Z,10.50
2022-11-01T06:17:58.646Z,10.70
2022-11-01T06:20:31.653Z,11.70
2022-11-01T06:22:59.680Z,10.63
2022-11-01T06:25:28.046Z,10.43
2022-11-01T06:27:55.004Z,11.10
2022-11-01T06:30:22.271Z,10.80
2022-11-01T06:32:50.266Z,10.40
2022-11-01T06:35:17.211Z,10.93
2022-11-01T06:37:44.501Z,9.97
2022-11-01T06:40:13.049Z,10.90
2022-11-01T06:42:45.364Z,9.10
2022-11-01T06:45:13.853Z,9.20
2022-11-01T06:47:40.820Z,9.50
2022-11-01T06:50:08.214Z,10.37
2022-11-01T06:52:36.194Z,9.13
2022-11-01T06:55:03.201Z,9.80
2022-11-01T06:57:30.075Z,9.03
2022-11-01T06:59:58.404Z,10.00
2022-11-01T07:02:29.660Z,9.80
2022-11-01T07:04:57.016Z,8.90
2022-11-01T07:07:24.238Z,7.53
2022-11-01T07:09:52.383Z,7.80
2022-11-01T07:12:19.486Z,7.57
2022-11-01T07:14:46.581Z,8.57
2022-11-01T07:17:14.545Z,7.50
2022-11-01T07:19:41.472Z,7.73
2022-11-01T07:22:08.601Z,7.60
2022-11-01T07:24:35.466Z,7.37
2022-11-01T07:27:02.363Z,7.37
2022-11-01T07:29:29.382Z,6.13
2022-11-01T07:31:56.495Z,6.00
2022-11-01T07:34:24.386Z,6.37
2022-11-01T07:36:54.367Z,6.40
2022-11-01T07:39:21.350Z,5.10
2022-11-01T07:41:51.281Z,4.80
2022-11-01T07:44:18.260Z,5.27
2022-11-01T07:46:45.172Z,4.70
2022-11-01T07:49:12.039Z,4.40
2022-11-01T07:51:38.980Z,4.37
2022-11-01T07:54:05.868Z,4.50
2022-11-01T07:56:32.862Z,4.20
2022-11-01T07:58:59.749Z,4.20
2022-11-01T08:01:26.731Z,3.77
2022-11-01T08:03:54.774Z,3.87
2022-11-01T08:08:54.954Z,4.07
2022-11-01T08:11:22.210Z,3.37
2022-11-01T08:13:49.142Z,3.70
2022-11-01T08:16:18.189Z,2.80
2022-11-01T08:18:45.292Z,3.23
2022-11-01T08:21:18.576Z,2.90
2022-11-01T08:23:46.509Z,3.30
2022-11-01T08:26:14.258Z,3.37
2022-11-01T08:28:41.589Z,3.73
2022-11-01T08:31:10.398Z,12.07
2022-11-01T08:33:37.319Z,25.10
2022-11-01T08:36:04.420Z,80.53
2022-11-01T08:38:31.382Z,17.83
2022-11-01T08:40:59.999Z,6.40
2022-11-01T08:43:26.929Z,3.50
2022-11-01T08:45:53.879Z,3.07
2022-11-01T08:48:20.810Z,3.00
2022-11-01T08:50:47.726Z,11.10
2022-11-01T08:53:15.462Z,9.30
2022-11-01T08:55:42.784Z,3.60
2022-11-01T08:58:10.182Z,2.67
2022-11-01T09:00:37.573Z,2.80
2022-11-01T09:03:05.189Z,2.40
2022-11-01T09:05:32.176Z,3.67
2022-11-01T09:08:01.403Z,2.30
2022-11-01T09:10:30.885Z,2.37
2022-11-01T09:13:00.202Z,2.60
2022-11-01T09:15:27.726Z,2.33
2022-11-01T09:17:54.615Z,1.80
2022-11-01T09:20:21.554Z,1.93
2022-11-01T09:22:52.093Z,1.50
2022-11-01T09:25:19.116Z,1.70
2022-11-01T09:27:45.999Z,1.40
2022-11-01T09:30:12.971Z,1.40
2022-11-01T09:32:39.858Z,1.53
2022-11-01T09:35:07.645Z,1.20
2022-11-01T09:37:34.700Z,1.10
2022-11-01T09:40:01.929Z,1.50
2022-11-01T09:42:34.488Z,1.87
2022-11-01T09:45:18.452Z,1.83
2022-11-01T09:47:51.096Z,1.40
2022-11-01T09:50:22.655Z,1.57
2022-11-01T09:52:55.011Z,1.60
2022-11-01T09:56:17.421Z,1.57
2022-11-01T09:59:03.968Z,1.50
2022-11-01T10:02:15.374Z,1.50
2022-11-01T10:05:22.084Z,1.20
2022-11-01T10:08:17.611Z,1.87
2022-11-01T10:11:27.278Z,1.40
2022-11-01T10:14:18.517Z,1.20
2022-11-01T10:16:58.760Z,1.70
2022-11-01T10:19:30.464Z,2.00
2022-11-01T10:22:04.744Z,1.40
2022-11-01T10:25:09.039Z,1.80
2022-11-01T10:27:44.636Z,1.30
2022-11-01T10:30:18.043Z,0.90
2022-11-01T10:33:27.706Z,1.43
2022-11-01T10:36:00.731Z,1.10
2022-11-01T10:41:51.218Z,1.67
2022-11-01T10:44:34.108Z,1.30
2022-11-01T10:47:07.141Z,1.00
2022-11-01T10:50:04.949Z,1.00
2022-11-01T10:52:50.855Z,1.37
2022-11-01T10:55:29.473Z,1.30
2022-11-01T10:58:07.728Z,1.60
2022-11-01T11:00:38.038Z,1.00
2022-11-01T11:03:21.159Z,1.40
2022-11-01T11:05:49.337Z,1.30
2022-11-01T11:08:19.576Z,1.50
2022-11-01T11:10:46.924Z,1.27
2022-11-01T11:13:19.873Z,1.03
2022-11-01T11:16:00.563Z,1.50
2022-11-01T11:18:42.495Z,1.10
2022-11-01T11:21:12.212Z,1.37
2022-11-01T11:23:46.539Z,1.73
2022-11-01T11:26:19.146Z,1.13
2022-11-01T11:28:51.980Z,1.00
2022-11-01T11:31:28.391Z,1.20
2022-11-01T11:34:22.725Z,1.03
2022-11-01T11:36:51.859Z,0.90
2022-11-01T11:39:30.748Z,1.10
2022-11-01T11:42:18.888Z,1.30
2022-11-01T11:44:55.716Z,1.30
2022-11-01T11:47:28.060Z,1.00
2022-11-01T11:49:58.289Z,1.30
2022-11-01T11:52:38.649Z,1.00
2022-11-01T11:55:36.670Z,1.30
2022-11-01T11:58:06.268Z,1.60
2022-11-01T12:00:37.304Z,1.30
2022-11-01T12:03:08.066Z,1.13
2022-11-01T12:05:35.420Z,1.30
2022-11-01T12:08:26.888Z,1.00
2022-11-01T12:10:58.710Z,1.27
2022-11-01T12:13:38.941Z,1.03
2022-11-01T12:16:17.838Z,1.40
2022-11-01T12:18:56.646Z,0.80
2022-11-01T12:21:38.298Z,1.00
2022-11-01T12:24:28.588Z,1.57
2022-11-01T12:27:01.786Z,1.17
2022-11-01T12:29:33.748Z,1.10
2022-11-01T12:32:18.833Z,1.43
2022-11-01T12:34:48.946Z,1.40
2022-11-01T12:37:31.328Z,1.00
2022-11-01T12:40:12.951Z,1.30
2022-11-01T12:43:02.635Z,1.23
2022-11-01T12:45:44.802Z,0.90
2022-11-01T12:48:28.193Z,1.13
2022-11-01T12:51:11.949Z,1.10
2022-11-01T12:53:49.302Z,1.00
2022-11-01T12:56:18.037Z,1.53
2022-11-01T12:58:45.365Z,1.07
2022-11-01T13:01:36.022Z,1.07
2022-11-01T13:04:15.971Z,1.10
2022-11-01T13:07:17.389Z,1.10
2022-11-01T13:09:53.065Z,1.13
2022-11-01T13:13:01.405Z,1.30
2022-11-01T13:15:42.069Z,1.00
2022-11-01T13:18:34.945Z,1.30
2022-11-01T13:21:13.948Z,1.03
2022-11-01T13:23:49.257Z,1.47
2022-11-01T13:26:40.361Z,1.13
2022-11-01T13:29:51.911Z,1.23
2022-11-01T13:33:01.423Z,1.07
2022-11-01T13:35:36.860Z,1.30
2022-11-01T13:38:13.473Z,1.30
2022-11-01T13:41:07.869Z,1.03
2022-11-01T13:43:41.791Z,1.20
2022-11-01T13:46:42.294Z,1.60
2022-11-01T13:49:09.053Z,1.10
2022-11-01T13:51:42.770Z,1.03
2022-11-01T13:54:34.736Z,1.30
2022-11-01T13:57:16.923Z,1.10
2022-11-01T14:00:02.105Z,1.70
2022-11-01T14:02:40.830Z,1.30
2022-11-01T14:05:11.177Z,1.13
2022-11-01T14:07:45.445Z,1.30
2022-11-01T14:10:19.051Z,1.17
2022-11-01T14:13:07.997Z,1.23
2022-11-01T14:15:39.661Z,1.50
2022-11-01T14:18:11.351Z,3.13
2022-11-01T14:20:43.674Z,2.40
2022-11-01T14:23:28.742Z,1.50
2022-11-01T14:26:18.854Z,1.83
2022-11-01T14:28:48.485Z,2.17
2022-11-01T14:31:18.305Z,1.10
2022-11-01T14:33:49.293Z,1.00
2022-11-01T14:36:19.762Z,1.13
2022-11-01T14:39:03.585Z,1.10
2022-11-01T14:41:36.186Z,1.50
2022-11-01T14:44:23.580Z,1.40
2022-11-01T14:46:54.673Z,1.30
2022-11-01T14:49:40.071Z,1.60
2022-11-01T14:52:37.226Z,1.27
2022-11-01T14:55:22.470Z,1.50
2022-11-01T14:57:49.523Z,1.10
2022-11-01T15:00:29.800Z,2.07
2022-11-01T15:03:02.286Z,1.27
2022-11-01T15:05:29.360Z,1.20
2022-11-01T15:07:59.377Z,1.40
2022-11-01T15:10:27.704Z,1.20
2022-11-01T15:13:04.271Z,1.40
2022-11-01T15:15:33.755Z,1.10
2022-11-01T15:18:13.288Z,1.10
2022-11-01T15:20:44.281Z,1.67
2022-11-01T15:23:18.951Z,1.20
2022-11-01T15:25:59.374Z,1.70
2022-11-01T15:28:55.185Z,1.40
2022-11-01T15:31:22.789Z,1.37
2022-11-01T15:34:21.524Z,1.43
2022-11-01T15:36:48.658Z,1.33
2022-11-01T15:39:21.618Z,0.90
2022-11-01T15:41:51.122Z,1.47
2022-11-01T15:44:27.789Z,2.00
2022-11-01T15:47:01.127Z,1.40
2022-11-01T15:49:37.849Z,1.17
2022-11-01T15:52:16.856Z,1.80
2022-11-01T15:55:14.536Z,1.50
2022-11-01T15:57:53.978Z,2.60
2022-11-01T16:00:30.132Z,5.13
2022-11-01T16:03:12.631Z,3.77
2022-11-01T16:05:58.594Z,2.27
2022-11-01T16:08:42.801Z,6.47
2022-11-01T16:11:10.252Z,3.00
2022-11-01T16:13:37.536Z,2.60
2022-11-01T16:16:11.530Z,2.40
2022-11-01T16:18:41.624Z,1.70
2022-11-01T16:21:20.738Z,1.87
2022-11-01T16:24:24.864Z,1.70
2022-11-01T16:26:53.220Z,1.93
2022-11-01T16:29:43.190Z,1.37
2022-11-01T16:32:28.684Z,1.77
2022-11-01T16:34:55.625Z,1.37
2022-11-01T16:37:28.074Z,1.63
2022-11-01T16:39:56.178Z,1.80
2022-11-01T16:42:24.496Z,1.20
2022-11-01T16:44:56.287Z,1.50
2022-11-01T16:47:23.321Z,1.97
2022-11-01T16:49:55.081Z,1.70
2022-11-01T16:52:22.497Z,1.60
2022-11-01T16:54:53.475Z,1.67
2022-11-01T16:57:26.816Z,1.23
2022-11-01T16:59:56.830Z,1.43
2022-11-01T17:02:30.321Z,1.30
2022-11-01T17:05:07.655Z,1.57
2022-11-01T17:07:34.631Z,1.83
2022-11-01T17:10:03.012Z,4.60
2022-11-01T17:12:30.010Z,7.67
2022-11-01T17:14:57.076Z,8.47
2022-11-01T17:17:27.327Z,5.50
2022-11-01T17:20:01.242Z,3.73
2022-11-01T17:22:36.728Z,3.40
2022-11-01T17:25:05.915Z,2.60
2022-11-01T17:27:32.922Z,3.40
2022-11-01T17:30:00.016Z,5.00
2022-11-01T17:32:27.021Z,4.83
2022-11-01T17:34:53.906Z,3.60
2022-11-01T17:37:22.176Z,3.50
2022-11-01T17:39:49.249Z,3.47
2022-11-01T17:42:16.160Z,3.23
2022-11-01T17:44:43.123Z,2.80
2022-11-01T17:47:16.482Z,2.83
2022-11-01T17:49:43.467Z,2.47
2022-11-01T17:52:10.385Z,3.20
2022-11-01T17:54:37.420Z,2.63
2022-11-01T17:57:04.404Z,2.13
2022-11-01T17:59:31.412Z,3.47
2022-11-01T18:01:58.504Z,2.03
2022-11-01T18:04:25.663Z,2.20
2022-11-01T18:06:52.764Z,1.87
2022-11-01T18:09:24.789Z,2.30
2022-11-01T18:12:09.181Z,2.00
2022-11-01T18:14:58.003Z,2.07
2022-11-01T18:18:03.689Z,1.70
2022-11-01T18:21:03.954Z,2.77
2022-11-01T18:23:31.868Z,2.30
2022-11-01T18:25:58.848Z,2.60
2022-11-01T18:28:27.681Z,2.30
2022-11-01T18:31:11.548Z,2.43
2022-11-01T18:33:54.766Z,2.07
2022-11-01T18:36:37.186Z,2.60
2022-11-01T18:39:36.558Z,2.07
2022-11-01T18:42:09.117Z,2.37
2022-11-01T18:44:37.545Z,2.80
2022-11-01T18:47:18.795Z,2.80
2022-11-01T18:49:46.161Z,2.43
2022-11-01T18:52:19.189Z,2.30
2022-11-01T18:54:56.064Z,1.57
2022-11-01T18:57:24.667Z,2.10
2022-11-01T18:59:53.519Z,1.80
2022-11-01T19:02:28.009Z,1.67
2022-11-01T19:05:17.757Z,3.40
2022-11-01T19:08:10.188Z,1.93
2022-11-01T19:10:38.290Z,1.90
2022-11-01T19:13:13.029Z,1.50
2022-11-01T19:15:40.656Z,2.00
2022-11-01T19:18:19.821Z,1.70
2022-11-01T19:20:53.079Z,1.80
2022-11-01T19:23:38.749Z,1.93
2022-11-01T19:26:36.084Z,1.67
2022-11-01T19:29:18.712Z,1.83
2022-11-01T19:31:48.452Z,1.90
2022-11-01T19:34:34.348Z,1.77
2022-11-01T19:37:06.164Z,2.10
2022-11-01T19:39:37.591Z,1.93
2022-11-01T19:42:35.105Z,2.60
2022-11-01T19:45:33.015Z,1.90
2022-11-01T19:48:02.357Z,1.60
2022-11-01T19:50:44.228Z,1.90
2022-11-01T19:53:33.485Z,1.87
2022-11-01T19:56:01.877Z,2.27
2022-11-01T19:58:51.269Z,1.97
2022-11-01T20:01:19.746Z,2.20
2022-11-01T20:03:57.825Z,1.93
2022-11-01T20:06:33.845Z,2.17
2022-11-01T20:09:18.906Z,2.70
2022-11-01T20:11:46.034Z,1.50
2022-11-01T20:14:13.910Z,1.70
2022-11-01T20:16:55.383Z,1.83
2022-11-01T20:19:22.328Z,2.17
2022-11-01T20:21:49.380Z,2.10
2022-11-01T20:24:16.662Z,3.07
2022-11-01T20:26:43.733Z,2.40
2022-11-01T20:29:11.155Z,1.90
2022-11-01T20:31:39.568Z,2.00
2022-11-01T20:34:07.385Z,2.30
2022-11-01T20:36:34.350Z,2.60
2022-11-01T20:39:01.673Z,2.60
2022-11-01T20:41:28.925Z,2.07
2022-11-01T20:43:56.649Z,1.73
2022-11-01T20:46:24.007Z,2.00
2022-11-01T20:48:50.944Z,2.30
2022-11-01T20:51:17.906Z,1.70
2022-11-01T20:53:44.784Z,2.20
2022-11-01T20:56:12.174Z,1.97
2022-11-01T20:58:41.631Z,2.20
2022-11-01T21:01:19.805Z,2.00
2022-11-01T21:03:46.744Z,3.07
2022-11-01T21:06:17.525Z,4.27
2022-11-01T21:08:48.962Z,2.57
2022-11-01T21:11:43.987Z,2.50
2022-11-01T21:14:16.724Z,4.00
2022-11-01T21:16:43.712Z,3.87
2022-11-01T21:19:24.124Z,2.20
2022-11-01T21:21:57.641Z,1.50
2022-11-01T21:24:36.984Z,1.80
2022-11-01T21:27:14.907Z,1.73
2022-11-01T21:29:45.246Z,1.50
2022-11-01T21:32:35.197Z,2.27
2022-11-01T21:35:20.804Z,1.60
2022-11-01T21:37:54.518Z,2.27
2022-11-01T21:40:29.633Z,1.57
2022-11-01T21:42:57.774Z,4.20
2022-11-01T21:45:33.123Z,4.63
2022-11-01T21:48:29.876Z,4.37
2022-11-01T21:50:57.027Z,4.23
2022-11-01T21:53:23.903Z,2.37
2022-11-01T21:55:50.766Z,2.17
2022-11-01T21:58:17.685Z,2.50
2022-11-01T22:00:44.639Z,2.53
2022-11-01T22:03:11.623Z,3.00
2022-11-01T22:05:38.745Z,2.80
2022-11-01T22:08:05.693Z,2.27
2022-11-01T22:10:33.320Z,2.97
2022-11-01T22:13:06.397Z,2.20
2022-11-01T22:15:33.836Z,2.17
2022-11-01T22:18:00.743Z,2.50
2022-11-01T22:20:27.645Z,2.10
2022-11-01T22:22:54.484Z,2.80
2022-11-01T22:25:21.730Z,2.30
2022-11-01T22:27:48.856Z,2.40
2022-11-01T22:30:16.034Z,2.40
2022-11-01T22:32:42.926Z,3.03
2022-11-01T22:35:09.934Z,3.33
2022-11-01T22:37:36.809Z,3.30
2022-11-01T22:40:12.615Z,3.30
2022-11-01T22:42:40.488Z,2.70
2022-11-01T22:45:15.949Z,2.70
2022-11-01T22:47:45.952Z,2.10
2022-11-01T22:50:25.948Z,2.37
2022-11-01T22:52:52.862Z,2.17
2022-11-01T22:55:25.204Z,2.40
2022-11-01T22:58:03.508Z,2.40
2022-11-01T23:00:31.849Z,2.60
2022-11-01T23:03:27.737Z,2.70
2022-11-01T23:05:58.274Z,2.30
2022-11-01T23:08:37.309Z,2.60
2022-11-01T23:11:04.710Z,2.40
2022-11-01T23:14:00.733Z,2.80
2022-11-01T23:16:38.171Z,2.53
2022-11-01T23:19:10.594Z,2.60
2022-11-01T23:21:37.520Z,2.00
2022-11-01T23:24:07.051Z,2.40
2022-11-01T23:26:34.269Z,2.00
2022-11-01T23:29:02.443Z,2.57
2022-11-01T23:31:29.964Z,2.27
2022-11-01T23:33:57.062Z,2.13
2022-11-01T23:36:33.308Z,2.33
2022-11-01T23:39:09.642Z,2.70
2022-11-01T23:41:44.753Z,2.03
2022-11-01T23:44:32.346Z,1.83
2022-11-01T23:47:31.963Z,2.10
2022-11-01T23:50:13.312Z,2.07
2022-11-01T23:52:46.035Z,2.43
2022-11-01T23:55:34.014Z,2.70
2022-11-01T23:58:04.160Z,2.17
